sensor_id;sensor_type;location;lat;lon;timestamp;P1;durP1;ratioP1;P2;durP2;ratioP2
46757;SDS011;32509;47.750;-3.396;2023-08-30T00:00:45;0.68;;;0.50;;
46757;SDS011;32509;47.750;-3.396;2023-08-30T00:03:11;4.22;;;0.82;;
46757;SDS011;32509;47.750;-3.396;2023-08-30T00:05:41;1.17;;;0.70;;
46757;SDS011;32509;47.750;-3.396;2023-08-30T00:08:07;1.63;;;0.75;;
46757;SDS011;32509;47.750;-3.396;2023-08-30T00:10:33;1.65;;;0.75;;
46757;SDS011;32509;47.750;-3.396;2023-08-30T00:12:59;2.78;;;0.82;;
46757;SDS011;32509;47.750;-3.396;2023-08-30T00:15:25;3.30;;;1.25;;
46757;SDS011;32509;47.750;-3.396;2023-08-30T00:17:51;1.77;;;0.60;;
46757;SDS011;32509;47.750;-3.396;2023-08-30T00:20:17;0.63;;;0.63;;
46757;SDS011;32509;47.750;-3.396;2023-08-30T00:22:44;1.25;;;0.60;;
46757;SDS011;32509;47.750;-3.396;2023-08-30T00:25:09;1.33;;;0.90;;
46757;SDS011;32509;47.750;-3.396;2023-08-30T00:27:35;1.60;;;0.70;;
46757;SDS011;32509;47.750;-3.396;2023-08-30T00:30:01;1.65;;;0.82;;
46757;SDS011;32509;47.750;-3.396;2023-08-30T00:32:27;0.98;;;0.90;;
46757;SDS011;32509;47.750;-3.396;2023-08-30T00:34:52;2.03;;;0.90;;
46757;SDS011;32509;47.750;-3.396;2023-08-30T00:37:18;1.00;;;0.60;;
46757;SDS011;32509;47.750;-3.396;2023-08-30T00:39:44;0.63;;;0.63;;
46757;SDS011;32509;47.750;-3.396;2023-08-30T00:42:10;1.17;;;0.77;;
46757;SDS011;32509;47.750;-3.396;2023-08-30T00:44:35;2.65;;;0.80;;
46757;SDS011;32509;47.750;-3.396;2023-08-30T00:47:02;0.50;;;0.50;;
46757;SDS011;32509;47.750;-3.396;2023-08-30T00:49:31;1.52;;;0.85;;
46757;SDS011;32509;47.750;-3.396;2023-08-30T00:52:01;0.95;;;0.60;;
46757;SDS011;32509;47.750;-3.396;2023-08-30T00:54:31;3.20;;;0.93;;
46757;SDS011;32509;47.750;-3.396;2023-08-30T00:56:57;1.90;;;0.75;;
46757;SDS011;32509;47.750;-3.396;2023-08-30T00:59:25;1.40;;;1.08;;
46757;SDS011;32509;47.750;-3.396;2023-08-30T01:01:52;0.57;;;0.55;;
46757;SDS011;32509;47.750;-3.396;2023-08-30T01:04:19;1.23;;;0.63;;
46757;SDS011;32509;47.750;-3.396;2023-08-30T01:06:44;1.15;;;0.70;;
46757;SDS011;32509;47.750;-3.396;2023-08-30T01:09:10;6.32;;;1.08;;
46757;SDS011;32509;47.750;-3.396;2023-08-30T01:11:44;0.60;;;0.60;;
46757;SDS011;32509;47.750;-3.396;2023-08-30T01:14:18;0.88;;;0.88;;
46757;SDS011;32509;47.750;-3.396;2023-08-30T01:16:47;2.15;;;0.70;;
46757;SDS011;32509;47.750;-3.396;2023-08-30T01:19:22;1.15;;;0.50;;
46757;SDS011;32509;47.750;-3.396;2023-08-30T01:25:08;2.40;;;1.10;;
46757;SDS011;32509;47.750;-3.396;2023-08-30T01:27:29;1.77;;;1.15;;
46757;SDS011;32509;47.750;-3.396;2023-08-30T01:29:57;2.10;;;0.80;;
46757;SDS011;32509;47.750;-3.396;2023-08-30T01:32:25;1.17;;;0.65;;
46757;SDS011;32509;47.750;-3.396;2023-08-30T01:34:53;0.80;;;0.70;;
46757;SDS011;32509;47.750;-3.396;2023-08-30T01:37:21;1.25;;;0.70;;
46757;SDS011;32509;47.750;-3.396;2023-08-30T01:39:47;4.93;;;0.85;;
46757;SDS011;32509;47.750;-3.396;2023-08-30T01:42:14;3.38;;;0.77;;
46757;SDS011;32509;47.750;-3.396;2023-08-30T01:44:40;3.88;;;1.10;;
46757;SDS011;32509;47.750;-3.396;2023-08-30T01:47:09;1.33;;;0.85;;
46757;SDS011;32509;47.750;-3.396;2023-08-30T01:49:36;0.70;;;0.60;;
46757;SDS011;32509;47.750;-3.396;2023-08-30T01:52:03;1.60;;;0.93;;
46757;SDS011;32509;47.750;-3.396;2023-08-30T01:54:29;0.82;;;0.68;;
46757;SDS011;32509;47.750;-3.396;2023-08-30T01:56:55;2.60;;;0.70;;
46757;SDS011;32509;47.750;-3.396;2023-08-30T01:59:23;1.33;;;1.02;;
46757;SDS011;32509;47.750;-3.396;2023-08-30T02:01:50;1.33;;;0.82;;
46757;SDS011;32509;47.750;-3.396;2023-08-30T02:04:16;0.98;;;0.88;;
46757;SDS011;32509;47.750;-3.396;2023-08-30T02:06:46;0.93;;;0.70;;
46757;SDS011;32509;47.750;-3.396;2023-08-30T02:12:13;0.88;;;0.65;;
46757;SDS011;32509;47.750;-3.396;2023-08-30T02:14:50;0.90;;;0.80;;
46757;SDS011;32509;47.750;-3.396;2023-08-30T02:17:17;0.63;;;0.60;;
46757;SDS011;32509;47.750;-3.396;2023-08-30T02:19:43;0.82;;;0.60;;
46757;SDS011;32509;47.750;-3.396;2023-08-30T02:22:10;1.50;;;0.70;;
46757;SDS011;32509;47.750;-3.396;2023-08-30T02:24:37;1.38;;;0.82;;
46757;SDS011;32509;47.750;-3.396;2023-08-30T02:27:03;3.42;;;0.80;;
46757;SDS011;32509;47.750;-3.396;2023-08-30T02:29:29;2.53;;;0.95;;
46757;SDS011;32509;47.750;-3.396;2023-08-30T02:31:55;1.15;;;0.90;;
46757;SDS011;32509;47.750;-3.396;2023-08-30T02:34:20;2.15;;;0.73;;
46757;SDS011;32509;47.750;-3.396;2023-08-30T02:36:46;1.13;;;0.63;;
46757;SDS011;32509;47.750;-3.396;2023-08-30T02:39:13;2.17;;;0.73;;
46757;SDS011;32509;47.750;-3.396;2023-08-30T02:41:40;1.63;;;0.98;;
46757;SDS011;32509;47.750;-3.396;2023-08-30T02:44:10;1.90;;;0.88;;
46757;SDS011;32509;47.750;-3.396;2023-08-30T02:46:36;2.28;;;0.90;;
46757;SDS011;32509;47.750;-3.396;2023-08-30T02:49:06;1.27;;;0.90;;
46757;SDS011;32509;47.750;-3.396;2023-08-30T02:51:32;1.77;;;1.05;;
46757;SDS011;32509;47.750;-3.396;2023-08-30T02:53:58;0.90;;;0.73;;
46757;SDS011;32509;47.750;-3.396;2023-08-30T02:56:23;1.20;;;0.80;;
46757;SDS011;32509;47.750;-3.396;2023-08-30T02:58:50;2.83;;;1.17;;
46757;SDS011;32509;47.750;-3.396;2023-08-30T03:01:16;0.70;;;0.70;;
46757;SDS011;32509;47.750;-3.396;2023-08-30T03:03:42;1.95;;;1.00;;
46757;SDS011;32509;47.750;-3.396;2023-08-30T03:06:07;2.15;;;0.90;;
46757;SDS011;32509;47.750;-3.396;2023-08-30T03:08:33;2.92;;;0.82;;
46757;SDS011;32509;47.750;-3.396;2023-08-30T03:11:12;2.90;;;0.90;;
46757;SDS011;32509;47.750;-3.396;2023-08-30T03:13:38;1.80;;;0.80;;
46757;SDS011;32509;47.750;-3.396;2023-08-30T03:16:14;2.90;;;1.13;;
46757;SDS011;32509;47.750;-3.396;2023-08-30T03:18:40;2.20;;;1.55;;
46757;SDS011;32509;47.750;-3.396;2023-08-30T03:21:07;0.93;;;0.90;;
46757;SDS011;32509;47.750;-3.396;2023-08-30T03:23:33;1.35;;;1.10;;
46757;SDS011;32509;47.750;-3.396;2023-08-30T03:26:07;2.50;;;0.77;;
46757;SDS011;32509;47.750;-3.396;2023-08-30T03:28:34;3.55;;;1.58;;
46757;SDS011;32509;47.750;-3.396;2023-08-30T03:30:59;1.90;;;1.05;;
46757;SDS011;32509;47.750;-3.396;2023-08-30T03:33:25;1.00;;;0.90;;
46757;SDS011;32509;47.750;-3.396;2023-08-30T03:35:51;1.33;;;0.90;;
46757;SDS011;32509;47.750;-3.396;2023-08-30T03:38:17;2.25;;;1.10;;
46757;SDS011;32509;47.750;-3.396;2023-08-30T03:40:43;3.95;;;1.13;;
46757;SDS011;32509;47.750;-3.396;2023-08-30T03:43:08;2.30;;;1.10;;
46757;SDS011;32509;47.750;-3.396;2023-08-30T03:45:35;4.97;;;1.30;;
46757;SDS011;32509;47.750;-3.396;2023-08-30T03:48:02;4.38;;;1.17;;
46757;SDS011;32509;47.750;-3.396;2023-08-30T03:50:28;3.20;;;1.27;;
46757;SDS011;32509;47.750;-3.396;2023-08-30T03:52:54;3.40;;;1.55;;
46757;SDS011;32509;47.750;-3.396;2023-08-30T03:55:20;2.75;;;1.38;;
46757;SDS011;32509;47.750;-3.396;2023-08-30T03:57:47;6.57;;;1.95;;
46757;SDS011;32509;47.750;-3.396;2023-08-30T04:00:14;1.98;;;1.17;;
46757;SDS011;32509;47.750;-3.396;2023-08-30T04:02:40;2.35;;;1.40;;
46757;SDS011;32509;47.750;-3.396;2023-08-30T04:05:06;3.58;;;1.42;;
46757;SDS011;32509;47.750;-3.396;2023-08-30T04:07:35;1.73;;;1.63;;
46757;SDS011;32509;47.750;-3.396;2023-08-30T04:10:01;2.67;;;1.65;;
46757;SDS011;32509;47.750;-3.396;2023-08-30T04:12:31;4.25;;;1.60;;
46757;SDS011;32509;47.750;-3.396;2023-08-30T04:14:56;4.90;;;1.55;;
46757;SDS011;32509;47.750;-3.396;2023-08-30T04:17:22;2.80;;;1.73;;
46757;SDS011;32509;47.750;-3.396;2023-08-30T04:19:51;2.78;;;1.92;;
46757;SDS011;32509;47.750;-3.396;2023-08-30T04:22:17;3.25;;;1.92;;
46757;SDS011;32509;47.750;-3.396;2023-08-30T04:24:43;4.82;;;1.50;;
46757;SDS011;32509;47.750;-3.396;2023-08-30T04:27:09;2.10;;;1.38;;
46757;SDS011;32509;47.750;-3.396;2023-08-30T04:29:35;4.95;;;1.50;;
46757;SDS011;32509;47.750;-3.396;2023-08-30T04:32:01;4.43;;;1.40;;
46757;SDS011;32509;47.750;-3.396;2023-08-30T04:34:26;4.50;;;2.33;;
46757;SDS011;32509;47.750;-3.396;2023-08-30T04:36:52;1.95;;;1.42;;
46757;SDS011;32509;47.750;-3.396;2023-08-30T04:39:18;3.65;;;2.00;;
46757;SDS011;32509;47.750;-3.396;2023-08-30T04:41:44;3.42;;;1.42;;
46757;SDS011;32509;47.750;-3.396;2023-08-30T04:44:10;3.92;;;1.65;;
46757;SDS011;32509;47.750;-3.396;2023-08-30T04:46:36;6.85;;;1.58;;
46757;SDS011;32509;47.750;-3.396;2023-08-30T04:49:01;3.72;;;1.50;;
46757;SDS011;32509;47.750;-3.396;2023-08-30T04:51:27;8.95;;;2.90;;
46757;SDS011;32509;47.750;-3.396;2023-08-30T04:53:53;3.30;;;1.65;;
46757;SDS011;32509;47.750;-3.396;2023-08-30T04:56:19;5.30;;;1.50;;
46757;SDS011;32509;47.750;-3.396;2023-08-30T04:58:44;3.20;;;1.52;;
46757;SDS011;32509;47.750;-3.396;2023-08-30T05:01:10;4.47;;;1.75;;
46757;SDS011;32509;47.750;-3.396;2023-08-30T05:03:38;1.80;;;1.33;;
46757;SDS011;32509;47.750;-3.396;2023-08-30T05:06:04;2.40;;;1.50;;
46757;SDS011;32509;47.750;-3.396;2023-08-30T05:08:31;5.85;;;1.70;;
46757;SDS011;32509;47.750;-3.396;2023-08-30T05:10:56;4.65;;;2.00;;
46757;SDS011;32509;47.750;-3.396;2023-08-30T05:13:22;5.05;;;2.20;;
46757;SDS011;32509;47.750;-3.396;2023-08-30T05:15:48;3.78;;;1.48;;
46757;SDS011;32509;47.750;-3.396;2023-08-30T05:18:14;2.60;;;1.52;;
46757;SDS011;32509;47.750;-3.396;2023-08-30T05:20:40;3.90;;;2.20;;
46757;SDS011;32509;47.750;-3.396;2023-08-30T05:23:05;4.68;;;2.13;;
46757;SDS011;32509;47.750;-3.396;2023-08-30T05:25:31;4.25;;;1.60;;
46757;SDS011;32509;47.750;-3.396;2023-08-30T05:27:57;4.63;;;1.90;;
46757;SDS011;32509;47.750;-3.396;2023-08-30T05:30:23;6.13;;;1.85;;
46757;SDS011;32509;47.750;-3.396;2023-08-30T05:32:48;2.47;;;1.33;;
46757;SDS011;32509;47.750;-3.396;2023-08-30T05:35:14;3.85;;;2.00;;
46757;SDS011;32509;47.750;-3.396;2023-08-30T05:37:40;2.75;;;1.50;;
46757;SDS011;32509;47.750;-3.396;2023-08-30T05:40:06;2.80;;;1.70;;
46757;SDS011;32509;47.750;-3.396;2023-08-30T05:42:32;3.28;;;1.25;;
46757;SDS011;32509;47.750;-3.396;2023-08-30T05:44:58;4.05;;;1.33;;
46757;SDS011;32509;47.750;-3.396;2023-08-30T05:47:24;5.72;;;1.98;;
46757;SDS011;32509;47.750;-3.396;2023-08-30T05:49:50;3.55;;;1.45;;
46757;SDS011;32509;47.750;-3.396;2023-08-30T05:52:15;2.15;;;1.38;;
46757;SDS011;32509;47.750;-3.396;2023-08-30T05:54:41;6.43;;;1.98;;
46757;SDS011;32509;47.750;-3.396;2023-08-30T05:57:07;3.55;;;1.98;;
46757;SDS011;32509;47.750;-3.396;2023-08-30T05:59:34;8.00;;;1.60;;
46757;SDS011;32509;47.750;-3.396;2023-08-30T06:02:00;5.05;;;1.83;;
46757;SDS011;32509;47.750;-3.396;2023-08-30T06:04:26;5.97;;;1.80;;
46757;SDS011;32509;47.750;-3.396;2023-08-30T06:06:52;5.47;;;2.20;;
46757;SDS011;32509;47.750;-3.396;2023-08-30T06:09:18;3.03;;;1.50;;
46757;SDS011;32509;47.750;-3.396;2023-08-30T06:11:44;4.05;;;1.63;;
46757;SDS011;32509;47.750;-3.396;2023-08-30T06:14:09;6.15;;;1.77;;
46757;SDS011;32509;47.750;-3.396;2023-08-30T06:16:35;3.25;;;1.85;;
46757;SDS011;32509;47.750;-3.396;2023-08-30T06:19:01;4.25;;;1.67;;
46757;SDS011;32509;47.750;-3.396;2023-08-30T06:21:27;3.42;;;1.95;;
46757;SDS011;32509;47.750;-3.396;2023-08-30T06:23:53;5.20;;;1.83;;
46757;SDS011;32509;47.750;-3.396;2023-08-30T06:26:19;4.10;;;2.03;;
46757;SDS011;32509;47.750;-3.396;2023-08-30T06:28:44;3.17;;;1.52;;
46757;SDS011;32509;47.750;-3.396;2023-08-30T06:31:10;4.15;;;1.73;;
46757;SDS011;32509;47.750;-3.396;2023-08-30T06:33:36;3.72;;;1.73;;
46757;SDS011;32509;47.750;-3.396;2023-08-30T06:36:03;3.22;;;1.70;;
46757;SDS011;32509;47.750;-3.396;2023-08-30T06:38:30;4.65;;;1.58;;
46757;SDS011;32509;47.750;-3.396;2023-08-30T06:40:57;4.53;;;1.98;;
46757;SDS011;32509;47.750;-3.396;2023-08-30T06:43:23;4.78;;;1.80;;
46757;SDS011;32509;47.750;-3.396;2023-08-30T06:45:49;4.68;;;1.67;;
46757;SDS011;32509;47.750;-3.396;2023-08-30T06:48:15;4.25;;;1.90;;
46757;SDS011;32509;47.750;-3.396;2023-08-30T06:50:41;4.18;;;1.40;;
46757;SDS011;32509;47.750;-3.396;2023-08-30T06:53:06;6.07;;;1.80;;
46757;SDS011;32509;47.750;-3.396;2023-08-30T06:55:34;7.00;;;2.10;;
46757;SDS011;32509;47.750;-3.396;2023-08-30T06:58:02;6.28;;;1.88;;
46757;SDS011;32509;47.750;-3.396;2023-08-30T07:00:28;5.85;;;1.80;;
46757;SDS011;32509;47.750;-3.396;2023-08-30T07:02:53;4.22;;;1.67;;
46757;SDS011;32509;47.750;-3.396;2023-08-30T07:05:19;8.13;;;2.03;;
46757;SDS011;32509;47.750;-3.396;2023-08-30T07:07:45;17.27;;;4.32;;
46757;SDS011;32509;47.750;-3.396;2023-08-30T07:10:11;9.43;;;2.13;;
46757;SDS011;32509;47.750;-3.396;2023-08-30T07:12:36;5.25;;;2.10;;
46757;SDS011;32509;47.750;-3.396;2023-08-30T07:15:02;5.13;;;1.73;;
46757;SDS011;32509;47.750;-3.396;2023-08-30T07:17:29;5.97;;;2.42;;
46757;SDS011;32509;47.750;-3.396;2023-08-30T07:19:54;2.95;;;1.73;;
46757;SDS011;32509;47.750;-3.396;2023-08-30T07:22:20;6.53;;;1.85;;
46757;SDS011;32509;47.750;-3.396;2023-08-30T07:24:46;7.28;;;2.10;;
46757;SDS011;32509;47.750;-3.396;2023-08-30T07:27:12;5.35;;;2.20;;
46757;SDS011;32509;47.750;-3.396;2023-08-30T07:29:38;7.40;;;2.20;;
46757;SDS011;32509;47.750;-3.396;2023-08-30T07:32:07;4.45;;;2.08;;
46757;SDS011;32509;47.750;-3.396;2023-08-30T07:34:33;5.78;;;1.90;;
46757;SDS011;32509;47.750;-3.396;2023-08-30T07:36:59;8.80;;;3.22;;
46757;SDS011;32509;47.750;-3.396;2023-08-30T07:39:24;5.35;;;2.35;;
46757;SDS011;32509;47.750;-3.396;2023-08-30T07:41:50;14.40;;;3.17;;
46757;SDS011;32509;47.750;-3.396;2023-08-30T07:44:16;9.13;;;2.08;;
46757;SDS011;32509;47.750;-3.396;2023-08-30T07:46:42;2.70;;;1.95;;
46757;SDS011;32509;47.750;-3.396;2023-08-30T07:49:08;7.90;;;2.28;;
46757;SDS011;32509;47.750;-3.396;2023-08-30T07:51:34;6.03;;;2.22;;
46757;SDS011;32509;47.750;-3.396;2023-08-30T07:53:59;7.20;;;1.70;;
46757;SDS011;32509;47.750;-3.396;2023-08-30T07:56:25;8.38;;;2.40;;
46757;SDS011;32509;47.750;-3.396;2023-08-30T07:58:51;9.57;;;2.20;;
46757;SDS011;32509;47.750;-3.396;2023-08-30T08:01:17;8.52;;;2.28;;
46757;SDS011;32509;47.750;-3.396;2023-08-30T08:03:42;6.50;;;2.00;;
46757;SDS011;32509;47.750;-3.396;2023-08-30T08:06:08;5.55;;;2.25;;
46757;SDS011;32509;47.750;-3.396;2023-08-30T08:08:34;12.55;;;3.05;;
46757;SDS011;32509;47.750;-3.396;2023-08-30T08:10:59;10.27;;;2.80;;
46757;SDS011;32509;47.750;-3.396;2023-08-30T08:13:25;10.07;;;3.20;;
46757;SDS011;32509;47.750;-3.396;2023-08-30T08:15:51;10.20;;;3.35;;
46757;SDS011;32509;47.750;-3.396;2023-08-30T08:18:17;6.40;;;2.70;;
46757;SDS011;32509;47.750;-3.396;2023-08-30T08:20:43;10.90;;;2.58;;
46757;SDS011;32509;47.750;-3.396;2023-08-30T08:23:08;6.13;;;1.95;;
46757;SDS011;32509;47.750;-3.396;2023-08-30T08:25:34;7.45;;;2.00;;
46757;SDS011;32509;47.750;-3.396;2023-08-30T08:28:00;6.65;;;2.38;;
46757;SDS011;32509;47.750;-3.396;2023-08-30T08:30:26;8.35;;;2.40;;
46757;SDS011;32509;47.750;-3.396;2023-08-30T08:32:51;13.13;;;2.15;;
46757;SDS011;32509;47.750;-3.396;2023-08-30T08:35:17;11.35;;;3.70;;
46757;SDS011;32509;47.750;-3.396;2023-08-30T08:37:43;14.20;;;2.40;;
46757;SDS011;32509;47.750;-3.396;2023-08-30T08:40:09;9.05;;;2.25;;
46757;SDS011;32509;47.750;-3.396;2023-08-30T08:42:35;13.30;;;2.58;;
46757;SDS011;32509;47.750;-3.396;2023-08-30T08:45:02;6.82;;;2.28;;
46757;SDS011;32509;47.750;-3.396;2023-08-30T08:47:32;9.50;;;1.98;;
46757;SDS011;32509;47.750;-3.396;2023-08-30T08:49:58;8.50;;;2.30;;
46757;SDS011;32509;47.750;-3.396;2023-08-30T08:52:28;4.78;;;2.15;;
46757;SDS011;32509;47.750;-3.396;2023-08-30T08:54:54;9.60;;;3.47;;
46757;SDS011;32509;47.750;-3.396;2023-08-30T08:57:21;9.70;;;2.20;;
46757;SDS011;32509;47.750;-3.396;2023-08-30T08:59:46;7.88;;;1.98;;
46757;SDS011;32509;47.750;-3.396;2023-08-30T09:02:13;9.48;;;2.30;;
46757;SDS011;32509;47.750;-3.396;2023-08-30T09:04:40;9.85;;;2.78;;
46757;SDS011;32509;47.750;-3.396;2023-08-30T09:07:06;6.75;;;2.03;;
46757;SDS011;32509;47.750;-3.396;2023-08-30T09:09:32;6.85;;;2.05;;
46757;SDS011;32509;47.750;-3.396;2023-08-30T09:11:58;7.45;;;2.03;;
46757;SDS011;32509;47.750;-3.396;2023-08-30T09:14:24;6.15;;;1.90;;
46757;SDS011;32509;47.750;-3.396;2023-08-30T09:17:00;12.32;;;3.42;;
46757;SDS011;32509;47.750;-3.396;2023-08-30T09:19:27;6.90;;;2.10;;
46757;SDS011;32509;47.750;-3.396;2023-08-30T09:21:54;5.00;;;2.35;;
46757;SDS011;32509;47.750;-3.396;2023-08-30T09:24:23;6.80;;;2.10;;
46757;SDS011;32509;47.750;-3.396;2023-08-30T09:26:53;7.68;;;1.95;;
46757;SDS011;32509;47.750;-3.396;2023-08-30T09:29:20;6.60;;;2.08;;
46757;SDS011;32509;47.750;-3.396;2023-08-30T09:31:51;8.43;;;2.00;;
46757;SDS011;32509;47.750;-3.396;2023-08-30T09:34:23;6.10;;;2.20;;
46757;SDS011;32509;47.750;-3.396;2023-08-30T09:36:53;5.43;;;1.80;;
46757;SDS011;32509;47.750;-3.396;2023-08-30T09:39:20;8.40;;;1.67;;
46757;SDS011;32509;47.750;-3.396;2023-08-30T09:41:47;7.65;;;2.53;;
46757;SDS011;32509;47.750;-3.396;2023-08-30T09:44:14;7.25;;;2.10;;
46757;SDS011;32509;47.750;-3.396;2023-08-30T09:46:45;7.35;;;2.10;;
46757;SDS011;32509;47.750;-3.396;2023-08-30T09:49:12;5.15;;;1.70;;
46757;SDS011;32509;47.750;-3.396;2023-08-30T09:51:41;6.90;;;2.17;;
46757;SDS011;32509;47.750;-3.396;2023-08-30T09:54:13;7.63;;;1.80;;
46757;SDS011;32509;47.750;-3.396;2023-08-30T09:56:46;9.73;;;2.28;;
46757;SDS011;32509;47.750;-3.396;2023-08-30T09:59:13;6.32;;;2.22;;
46757;SDS011;32509;47.750;-3.396;2023-08-30T10:01:41;4.95;;;2.30;;
46757;SDS011;32509;47.750;-3.396;2023-08-30T10:04:08;12.45;;;2.78;;
46757;SDS011;32509;47.750;-3.396;2023-08-30T10:06:35;8.23;;;2.00;;
46757;SDS011;32509;47.750;-3.396;2023-08-30T10:09:02;6.95;;;2.17;;
46757;SDS011;32509;47.750;-3.396;2023-08-30T10:11:30;6.00;;;2.38;;
46757;SDS011;32509;47.750;-3.396;2023-08-30T10:13:59;7.40;;;2.13;;
46757;SDS011;32509;47.750;-3.396;2023-08-30T10:16:26;9.95;;;2.38;;
46757;SDS011;32509;47.750;-3.396;2023-08-30T10:18:55;9.60;;;2.90;;
46757;SDS011;32509;47.750;-3.396;2023-08-30T10:21:27;8.23;;;2.60;;
46757;SDS011;32509;47.750;-3.396;2023-08-30T10:23:55;6.53;;;2.22;;
46757;SDS011;32509;47.750;-3.396;2023-08-30T10:26:23;9.13;;;3.33;;
46757;SDS011;32509;47.750;-3.396;2023-08-30T10:28:52;5.47;;;2.47;;
46757;SDS011;32509;47.750;-3.396;2023-08-30T10:31:23;7.93;;;2.58;;
46757;SDS011;32509;47.750;-3.396;2023-08-30T10:33:49;7.40;;;2.33;;
46757;SDS011;32509;47.750;-3.396;2023-08-30T10:36:25;8.88;;;2.13;;
46757;SDS011;32509;47.750;-3.396;2023-08-30T10:38:52;7.88;;;2.30;;
46757;SDS011;32509;47.750;-3.396;2023-08-30T10:41:23;8.80;;;3.65;;
46757;SDS011;32509;47.750;-3.396;2023-08-30T10:43:51;5.13;;;2.60;;
46757;SDS011;32509;47.750;-3.396;2023-08-30T10:46:28;6.10;;;2.25;;
46757;SDS011;32509;47.750;-3.396;2023-08-30T10:49:08;8.90;;;2.22;;
46757;SDS011;32509;47.750;-3.396;2023-08-30T10:51:39;12.38;;;3.08;;
46757;SDS011;32509;47.750;-3.396;2023-08-30T10:54:12;6.03;;;2.17;;
46757;SDS011;32509;47.750;-3.396;2023-08-30T10:56:56;7.13;;;2.45;;
46757;SDS011;32509;47.750;-3.396;2023-08-30T10:59:26;9.27;;;2.88;;
46757;SDS011;32509;47.750;-3.396;2023-08-30T11:01:54;10.75;;;2.63;;
46757;SDS011;32509;47.750;-3.396;2023-08-30T11:04:21;9.52;;;2.25;;
46757;SDS011;32509;47.750;-3.396;2023-08-30T11:06:48;6.10;;;1.80;;
46757;SDS011;32509;47.750;-3.396;2023-08-30T11:09:16;11.00;;;2.88;;
46757;SDS011;32509;47.750;-3.396;2023-08-30T11:11:44;12.05;;;3.55;;
46757;SDS011;32509;47.750;-3.396;2023-08-30T11:14:16;5.68;;;2.08;;
46757;SDS011;32509;47.750;-3.396;2023-08-30T11:16:43;7.18;;;2.15;;
46757;SDS011;32509;47.750;-3.396;2023-08-30T11:19:10;6.20;;;2.22;;
46757;SDS011;32509;47.750;-3.396;2023-08-30T11:21:39;7.18;;;2.80;;
46757;SDS011;32509;47.750;-3.396;2023-08-30T11:24:10;8.43;;;2.63;;
46757;SDS011;32509;47.750;-3.396;2023-08-30T11:26:37;11.93;;;2.78;;
46757;SDS011;32509;47.750;-3.396;2023-08-30T11:29:06;8.90;;;2.55;;
46757;SDS011;32509;47.750;-3.396;2023-08-30T11:31:33;8.73;;;2.97;;
46757;SDS011;32509;47.750;-3.396;2023-08-30T11:33:59;11.68;;;2.75;;
46757;SDS011;32509;47.750;-3.396;2023-08-30T11:36:26;8.15;;;2.88;;
46757;SDS011;32509;47.750;-3.396;2023-08-30T11:38:56;8.68;;;2.22;;
46757;SDS011;32509;47.750;-3.396;2023-08-30T11:41:23;9.75;;;3.15;;
46757;SDS011;32509;47.750;-3.396;2023-08-30T11:43:50;6.78;;;2.58;;
46757;SDS011;32509;47.750;-3.396;2023-08-30T11:46:17;11.15;;;2.30;;
46757;SDS011;32509;47.750;-3.396;2023-08-30T11:48:43;5.50;;;2.13;;
46757;SDS011;32509;47.750;-3.396;2023-08-30T11:51:10;7.18;;;3.13;;
46757;SDS011;32509;47.750;-3.396;2023-08-30T11:53:36;6.95;;;2.05;;
46757;SDS011;32509;47.750;-3.396;2023-08-30T11:56:04;9.65;;;2.55;;
46757;SDS011;32509;47.750;-3.396;2023-08-30T11:58:34;7.00;;;2.58;;
46757;SDS011;32509;47.750;-3.396;2023-08-30T12:01:04;5.47;;;2.10;;
46757;SDS011;32509;47.750;-3.396;2023-08-30T12:03:30;10.50;;;2.53;;
46757;SDS011;32509;47.750;-3.396;2023-08-30T12:05:57;14.35;;;3.95;;
46757;SDS011;32509;47.750;-3.396;2023-08-30T12:08:24;12.25;;;2.90;;
46757;SDS011;32509;47.750;-3.396;2023-08-30T12:10:51;14.23;;;3.10;;
46757;SDS011;32509;47.750;-3.396;2023-08-30T12:13:24;9.82;;;3.42;;
46757;SDS011;32509;47.750;-3.396;2023-08-30T12:15:55;10.07;;;3.22;;
46757;SDS011;32509;47.750;-3.396;2023-08-30T12:18:22;10.88;;;3.10;;
46757;SDS011;32509;47.750;-3.396;2023-08-30T12:23:26;10.75;;;2.60;;
46757;SDS011;32509;47.750;-3.396;2023-08-30T12:26:06;13.20;;;3.20;;
46757;SDS011;32509;47.750;-3.396;2023-08-30T12:28:34;13.52;;;2.80;;
46757;SDS011;32509;47.750;-3.396;2023-08-30T12:31:04;10.38;;;2.50;;
46757;SDS011;32509;47.750;-3.396;2023-08-30T12:33:30;10.15;;;3.00;;
46757;SDS011;32509;47.750;-3.396;2023-08-30T12:35:57;8.48;;;2.80;;
46757;SDS011;32509;47.750;-3.396;2023-08-30T12:38:23;13.27;;;2.80;;
46757;SDS011;32509;47.750;-3.396;2023-08-30T12:40:53;8.23;;;2.58;;
46757;SDS011;32509;47.750;-3.396;2023-08-30T12:43:20;7.90;;;2.17;;
46757;SDS011;32509;47.750;-3.396;2023-08-30T12:45:47;10.02;;;3.33;;
46757;SDS011;32509;47.750;-3.396;2023-08-30T12:48:14;11.90;;;3.33;;
46757;SDS011;32509;47.750;-3.396;2023-08-30T12:50:41;8.43;;;2.65;;
46757;SDS011;32509;47.750;-3.396;2023-08-30T12:53:08;11.57;;;3.05;;
46757;SDS011;32509;47.750;-3.396;2023-08-30T12:55:34;9.73;;;2.80;;
46757;SDS011;32509;47.750;-3.396;2023-08-30T12:58:00;8.05;;;2.92;;
46757;SDS011;32509;47.750;-3.396;2023-08-30T13:00:27;11.32;;;3.20;;
46757;SDS011;32509;47.750;-3.396;2023-08-30T13:02:53;9.85;;;2.60;;
46757;SDS011;32509;47.750;-3.396;2023-08-30T13:05:19;11.88;;;2.40;;
46757;SDS011;32509;47.750;-3.396;2023-08-30T13:07:46;9.82;;;2.42;;
46757;SDS011;32509;47.750;-3.396;2023-08-30T13:10:12;12.48;;;3.10;;
46757;SDS011;32509;47.750;-3.396;2023-08-30T13:12:38;11.52;;;2.70;;
46757;SDS011;32509;47.750;-3.396;2023-08-30T13:15:04;9.23;;;2.70;;
46757;SDS011;32509;47.750;-3.396;2023-08-30T13:17:30;9.15;;;2.60;;
46757;SDS011;32509;47.750;-3.396;2023-08-30T13:19:56;15.35;;;3.17;;
46757;SDS011;32509;47.750;-3.396;2023-08-30T13:22:23;11.38;;;2.83;;
46757;SDS011;32509;47.750;-3.396;2023-08-30T13:24:49;8.50;;;2.83;;
46757;SDS011;32509;47.750;-3.396;2023-08-30T13:27:15;11.40;;;3.97;;
46757;SDS011;32509;47.750;-3.396;2023-08-30T13:29:41;7.55;;;2.50;;
46757;SDS011;32509;47.750;-3.396;2023-08-30T13:32:07;13.32;;;3.40;;
46757;SDS011;32509;47.750;-3.396;2023-08-30T13:34:33;8.73;;;2.20;;
46757;SDS011;32509;47.750;-3.396;2023-08-30T13:36:58;12.13;;;3.30;;
46757;SDS011;32509;47.750;-3.396;2023-08-30T13:39:24;8.02;;;2.42;;
46757;SDS011;32509;47.750;-3.396;2023-08-30T13:41:50;9.35;;;2.33;;
46757;SDS011;32509;47.750;-3.396;2023-08-30T13:44:16;8.05;;;2.40;;
46757;SDS011;32509;47.750;-3.396;2023-08-30T13:46:43;11.25;;;2.70;;
46757;SDS011;32509;47.750;-3.396;2023-08-30T13:49:09;12.68;;;2.80;;
46757;SDS011;32509;47.750;-3.396;2023-08-30T13:51:35;7.55;;;2.03;;
46757;SDS011;32509;47.750;-3.396;2023-08-30T13:54:01;10.63;;;2.85;;
46757;SDS011;32509;47.750;-3.396;2023-08-30T13:56:27;12.23;;;2.35;;
46757;SDS011;32509;47.750;-3.396;2023-08-30T13:58:55;10.57;;;3.00;;
46757;SDS011;32509;47.750;-3.396;2023-08-30T14:01:21;9.73;;;2.88;;
46757;SDS011;32509;47.750;-3.396;2023-08-30T14:03:47;18.50;;;3.42;;
46757;SDS011;32509;47.750;-3.396;2023-08-30T14:06:13;9.48;;;2.97;;
46757;SDS011;32509;47.750;-3.396;2023-08-30T14:08:39;10.50;;;2.70;;
46757;SDS011;32509;47.750;-3.396;2023-08-30T14:11:05;15.05;;;3.67;;
46757;SDS011;32509;47.750;-3.396;2023-08-30T14:13:30;12.10;;;2.55;;
46757;SDS011;32509;47.750;-3.396;2023-08-30T14:15:58;13.57;;;3.00;;
46757;SDS011;32509;47.750;-3.396;2023-08-30T14:18:25;11.65;;;3.08;;
46757;SDS011;32509;47.750;-3.396;2023-08-30T14:20:54;9.07;;;2.53;;
46757;SDS011;32509;47.750;-3.396;2023-08-30T14:28:26;11.82;;;2.50;;
46757;SDS011;32509;47.750;-3.396;2023-08-30T14:30:52;10.40;;;2.45;;
46757;SDS011;32509;47.750;-3.396;2023-08-30T14:33:18;9.02;;;2.60;;
46757;SDS011;32509;47.750;-3.396;2023-08-30T14:35:45;12.10;;;2.33;;
46757;SDS011;32509;47.750;-3.396;2023-08-30T14:38:11;8.98;;;1.90;;
46757;SDS011;32509;47.750;-3.396;2023-08-30T14:40:37;6.85;;;3.05;;
46757;SDS011;32509;47.750;-3.396;2023-08-30T14:43:03;9.15;;;2.10;;
46757;SDS011;32509;47.750;-3.396;2023-08-30T14:45:31;9.18;;;2.33;;